createdAt,value
2022-11-02T00:01:41.455Z,12.00
2022-11-02T00:04:11.788Z,12.00
2022-11-02T00:06:41.363Z,11.90
2022-11-02T00:09:10.850Z,11.90
2022-11-02T00:11:39.597Z,11.90
2022-11-02T00:14:08.251Z,11.80
2022-11-02T00:16:41.064Z,11.80
2022-11-02T00:19:11.385Z,11.80
2022-11-02T00:21:40.314Z,11.80
2022-11-02T00:24:10.145Z,11.70
2022-11-02T00:26:39.802Z,11.70
2022-11-02T00:29:09.705Z,11.70
2022-11-02T00:31:38.233Z,11.70
2022-11-02T00:34:06.875Z,11.60
2022-11-02T00:36:36.942Z,11.60
2022-11-02T00:39:05.746Z,11.60
2022-11-02T00:41:34.331Z,11.60
2022-11-02T00:44:03.037Z,11.50
2022-11-02T00:46:31.555Z,11.50
2022-11-02T00:49:00.177Z,11.40
2022-11-02T00:51:29.675Z,11.40
2022-11-02T00:53:59.620Z,11.30
2022-11-02T00:56:28.246Z,11.30
2022-11-02T00:58:57.810Z,11.20
2022-11-02T01:01:26.383Z,11.20
2022-11-02T01:03:57.341Z,11.10
2022-11-02T01:06:25.918Z,11.10
2022-11-02T01:08:55.638Z,11.00
2022-11-02T01:11:26.588Z,11.00
2022-11-02T01:13:55.487Z,10.90
2022-11-02T01:16:24.106Z,10.80
2022-11-02T01:18:54.376Z,10.80
2022-11-02T01:21:43.403Z,10.80
2022-11-02T01:24:12.214Z,10.70
2022-11-02T01:26:42.263Z,10.60
2022-11-02T01:29:12.869Z,10.60
2022-11-02T01:31:41.490Z,10.60
2022-11-02T01:34:10.083Z,10.60
2022-11-02T01:36:39.140Z,10.50
2022-11-02T01:39:08.056Z,10.50
2022-11-02T01:41:36.647Z,10.50
2022-11-02T01:44:31.238Z,10.50
2022-11-02T01:47:05.489Z,10.50
2022-11-02T01:49:38.110Z,10.50
2022-11-02T01:52:11.690Z,10.40
2022-11-02T01:54:51.945Z,10.40
2022-11-02T01:57:23.653Z,10.30
2022-11-02T01:59:58.299Z,10.30
2022-11-02T02:02:28.483Z,10.30
2022-11-02T02:05:10.183Z,10.30
2022-11-02T02:07:40.969Z,10.20
2022-11-02T02:10:10.519Z,10.20
2022-11-02T02:12:41.302Z,10.20
2022-11-02T02:15:12.632Z,10.20
2022-11-02T02:17:49.052Z,10.20
2022-11-02T02:20:34.148Z,10.20
2022-11-02T02:23:31.218Z,10.20
2022-11-02T02:26:59.234Z,10.20
2022-11-02T02:29:40.836Z,10.20
2022-11-02T02:32:18.481Z,10.20
2022-11-02T02:34:54.409Z,10.20
2022-11-02T02:37:28.907Z,10.20
2022-11-02T02:40:04.995Z,10.20
2022-11-02T02:42:42.574Z,10.20
2022-11-02T02:45:20.194Z,10.20
2022-11-02T02:47:53.763Z,10.10
2022-11-02T02:50:27.980Z,10.10
2022-11-02T02:52:58.435Z,10.10
2022-11-02T02:55:34.044Z,10.10
2022-11-02T02:58:04.490Z,10.10
2022-11-02T03:00:36.435Z,10.10
2022-11-02T03:03:06.693Z,10.00
2022-11-02T03:05:37.983Z,10.00
2022-11-02T03:08:14.780Z,10.00
2022-11-02T03:10:50.643Z,10.00
2022-11-02T03:13:37.272Z,10.00
2022-11-02T03:16:18.702Z,10.00
2022-11-02T03:18:50.785Z,10.00
2022-11-02T03:21:27.994Z,10.00
2022-11-02T03:24:02.537Z,10.00
2022-11-02T03:26:35.740Z,10.00
2022-11-02T03:29:11.075Z,10.00
2022-11-02T03:31:48.100Z,10.00
2022-11-02T03:34:28.118Z,10.00
2022-11-02T03:37:04.198Z,10.00
2022-11-02T03:39:39.853Z,10.00
2022-11-02T03:42:16.029Z,10.00
2022-11-02T03:44:49.113Z,10.00
2022-11-02T03:47:20.349Z,10.00
2022-11-02T03:49:51.819Z,10.00
2022-11-02T03:52:25.022Z,10.00
2022-11-02T03:55:02.017Z,10.00
2022-11-02T03:57:37.839Z,10.00
2022-11-02T04:00:13.112Z,9.90
2022-11-02T04:02:53.589Z,9.90
2022-11-02T04:05:28.870Z,9.90
2022-11-02T04:08:16.053Z,9.90
2022-11-02T04:10:59.966Z,9.90
2022-11-02T04:13:46.167Z,9.90
2022-11-02T04:16:14.973Z,9.90
2022-11-02T04:19:02.896Z,9.90
2022-11-02T04:21:32.502Z,9.90
2022-11-02T04:24:20.430Z,9.80
2022-11-02T04:26:49.847Z,9.90
2022-11-02T04:29:20.010Z,9.90
2022-11-02T04:31:49.706Z,9.80
2022-11-02T04:34:18.834Z,9.80
2022-11-02T04:36:47.929Z,9.80
2022-11-02T04:39:15.801Z,9.80
2022-11-02T04:41:44.423Z,9.80
2022-11-02T04:44:28.861Z,9.70
2022-11-02T04:47:04.406Z,9.70
2022-11-02T04:49:36.238Z,9.70
2022-11-02T04:52:07.384Z,9.70
2022-11-02T04:54:37.609Z,9.70
2022-11-02T04:57:08.213Z,9.60
2022-11-02T04:59:36.758Z,9.60
2022-11-02T05:02:06.248Z,9.60
2022-11-02T05:04:36.318Z,9.60
2022-11-02T05:07:07.757Z,9.60
2022-11-02T05:09:38.217Z,9.60
2022-11-02T05:12:07.718Z,9.50
2022-11-02T05:14:36.887Z,9.50
2022-11-02T05:17:05.531Z,9.50
2022-11-02T05:19:37.259Z,9.50
2022-11-02T05:22:07.212Z,9.50
2022-11-02T05:24:36.355Z,9.50
2022-11-02T05:27:06.689Z,9.50
2022-11-02T05:29:37.978Z,9.50
2022-11-02T05:32:07.333Z,9.40
2022-11-02T05:34:37.447Z,9.40
2022-11-02T05:37:06.218Z,9.40
2022-11-02T05:39:35.573Z,9.40
2022-11-02T05:42:05.010Z,9.40
2022-11-02T05:44:33.956Z,9.40
2022-11-02T05:47:02.872Z,9.30
2022-11-02T05:49:31.501Z,9.40
2022-11-02T05:52:01.524Z,9.30
2022-11-02T05:54:30.108Z,9.30
2022-11-02T05:56:59.151Z,9.30
2022-11-02T05:59:27.747Z,9.30
2022-11-02T06:01:56.449Z,9.30
2022-11-02T06:04:25.093Z,9.20
2022-11-02T06:06:53.768Z,9.20
2022-11-02T06:09:23.923Z,9.30
2022-11-02T06:11:52.551Z,9.20
2022-11-02T06:14:21.160Z,9.20
2022-11-02T06:16:49.773Z,9.20
2022-11-02T06:19:18.360Z,9.20
2022-11-02T06:21:48.545Z,9.20
2022-11-02T06:24:17.405Z,9.20
2022-11-02T06:26:47.387Z,9.20
2022-11-02T06:29:16.064Z,9.30
2022-11-02T06:31:44.752Z,9.30
2022-11-02T06:34:13.269Z,9.30
2022-11-02T06:36:41.907Z,9.30
2022-11-02T06:39:10.436Z,9.30
2022-11-02T06:41:38.992Z,9.30
2022-11-02T06:44:09.174Z,9.40
2022-11-02T06:46:37.723Z,9.40
2022-11-02T06:49:06.258Z,9.40
2022-11-02T06:51:34.887Z,9.40
2022-11-02T06:54:08.418Z,9.40
2022-11-02T06:56:37.380Z,9.40
2022-11-02T06:59:05.917Z,9.40
2022-11-02T07:01:36.554Z,9.40
2022-11-02T07:04:05.759Z,9.40
2022-11-02T07:06:34.626Z,9.40
2022-11-02T07:09:03.184Z,9.50
2022-11-02T07:11:31.914Z,9.50
2022-11-02T07:14:00.458Z,9.50
2022-11-02T07:16:29.061Z,9.50
2022-11-02T07:18:59.086Z,9.50
2022-11-02T07:21:27.660Z,9.50
2022-11-02T07:23:56.144Z,9.50
2022-11-02T07:26:24.763Z,9.50
2022-11-02T07:28:58.278Z,9.60
2022-11-02T07:31:27.972Z,9.60
2022-11-02T07:33:57.949Z,9.60
2022-11-02T07:36:26.526Z,9.60
2022-11-02T07:38:55.149Z,9.60
2022-11-02T07:41:23.716Z,9.70
2022-11-02T07:43:52.336Z,9.60
2022-11-02T07:46:27.692Z,9.70
2022-11-02T07:48:56.493Z,9.70
2022-11-02T07:51:26.495Z,9.70
2022-11-02T07:53:55.134Z,9.70
2022-11-02T07:56:23.673Z,9.80
2022-11-02T07:58:52.227Z,9.80
2022-11-02T08:01:20.889Z,9.80
2022-11-02T08:03:49.667Z,9.80
2022-11-02T08:06:18.195Z,9.90
2022-11-02T08:08:48.209Z,9.90
2022-11-02T08:11:16.834Z,10.00
2022-11-02T08:13:45.412Z,10.00
2022-11-02T08:16:14.027Z,10.10
2022-11-02T08:18:42.627Z,10.10
2022-11-02T08:21:11.180Z,10.20
2022-11-02T08:23:39.794Z,10.30
2022-11-02T08:26:09.785Z,10.40
2022-11-02T08:28:40.358Z,10.50
2022-11-02T08:31:13.483Z,10.60
2022-11-02T08:33:42.047Z,10.80
2022-11-02T08:36:11.700Z,11.00
2022-11-02T08:38:40.547Z,11.10
2022-11-02T08:41:10.504Z,11.30
2022-11-02T08:43:39.066Z,11.50
2022-11-02T08:46:16.417Z,11.70
2022-11-02T08:48:46.047Z,11.90
2022-11-02T08:51:14.733Z,12.10
2022-11-02T08:53:48.543Z,12.30
2022-11-02T08:56:21.384Z,12.40
2022-11-02T08:58:49.949Z,12.60
2022-11-02T09:01:18.565Z,12.80
2022-11-02T09:03:47.233Z,12.90
2022-11-02T09:06:15.848Z,13.10
2022-11-02T09:08:44.388Z,13.20
2022-11-02T09:11:13.080Z,13.30
2022-11-02T09:13:43.135Z,13.40
2022-11-02T09:16:11.776Z,13.60
2022-11-02T09:18:40.371Z,13.70
2022-11-02T09:21:09.234Z,13.80
2022-11-02T09:23:37.762Z,14.00
2022-11-02T09:26:06.530Z,14.10
2022-11-02T09:28:35.104Z,14.20
2022-11-02T09:31:08.930Z,14.30
2022-11-02T09:33:40.127Z,14.40
2022-11-02T09:36:09.863Z,14.50
2022-11-02T09:38:38.406Z,14.60
2022-11-02T09:41:35.010Z,14.70
2022-11-02T09:44:11.153Z,14.80
2022-11-02T09:47:55.753Z,14.90
2022-11-02T09:49:52.428Z,14.90
2022-11-02T09:52:29.883Z,15.00
2022-11-02T09:55:00.810Z,15.10
2022-11-02T09:57:31.942Z,15.10
2022-11-02T10:00:00.940Z,15.20
2022-11-02T10:02:44.212Z,15.20
2022-11-02T10:05:26.455Z,15.30
2022-11-02T10:08:15.574Z,15.30
2022-11-02T10:10:55.234Z,15.40
2022-11-02T10:13:35.886Z,15.40
2022-11-02T10:16:11.564Z,15.50
2022-11-02T10:18:43.394Z,15.50
2022-11-02T10:21:18.848Z,15.60
2022-11-02T10:23:52.475Z,15.60
2022-11-02T10:26:25.594Z,15.70
2022-11-02T10:29:00.523Z,15.70
2022-11-02T10:31:32.559Z,15.80
2022-11-02T10:34:24.696Z,15.80
2022-11-02T10:37:09.382Z,15.90
2022-11-02T10:39:45.634Z,16.00
2022-11-02T10:42:39.503Z,16.00
2022-11-02T10:45:36.549Z,16.10
2022-11-02T10:48:12.342Z,16.10
2022-11-02T10:50:49.777Z,16.10
2022-11-02T10:53:39.974Z,16.20
2022-11-02T10:56:17.185Z,16.20
2022-11-02T10:59:01.847Z,16.30
2022-11-02T11:01:32.547Z,16.30
2022-11-02T11:04:03.310Z,16.40
2022-11-02T11:06:38.458Z,16.40
2022-11-02T11:09:17.171Z,16.40
2022-11-02T11:11:55.886Z,16.50
2022-11-02T11:20:28.547Z,16.50
2022-11-02T11:23:19.708Z,16.60
2022-11-02T11:26:02.886Z,16.60
2022-11-02T11:28:34.281Z,16.60
2022-11-02T11:31:15.461Z,16.60
2022-11-02T11:33:49.962Z,16.60
2022-11-02T11:36:28.638Z,16.70
2022-11-02T11:39:01.754Z,16.70
2022-11-02T11:41:32.480Z,16.70
2022-11-02T11:44:02.882Z,16.70
2022-11-02T11:46:42.367Z,16.70
2022-11-02T11:49:35.979Z,16.70
2022-11-02T11:52:19.460Z,16.70
2022-11-02T11:54:57.390Z,16.60
2022-11-02T11:57:31.659Z,16.60
2022-11-02T12:00:05.056Z,16.60
2022-11-02T12:02:42.776Z,16.60
2022-11-02T12:05:16.627Z,16.70
2022-11-02T12:08:24.154Z,16.60
2022-11-02T12:11:19.176Z,16.70
2022-11-02T12:14:10.680Z,16.70
2022-11-02T12:17:02.177Z,16.80
2022-11-02T12:19:49.892Z,16.80
2022-11-02T12:22:26.390Z,16.90
2022-11-02T12:25:23.693Z,16.90
2022-11-02T12:28:02.937Z,17.00
2022-11-02T12:30:42.279Z,17.00
2022-11-02T12:33:25.394Z,17.00
2022-11-02T12:36:13.855Z,16.90
2022-11-02T12:39:07.805Z,16.90
2022-11-02T12:41:47.722Z,16.90
2022-11-02T12:45:09.551Z,16.90
2022-11-02T12:47:52.781Z,16.90
2022-11-02T12:50:47.047Z,16.80
2022-11-02T12:53:35.616Z,16.80
2022-11-02T12:56:07.814Z,16.80
2022-11-02T12:58:39.699Z,16.80
2022-11-02T13:01:18.732Z,16.80
2022-11-02T13:03:54.455Z,16.80
2022-11-02T13:06:31.052Z,16.80
2022-11-02T13:09:06.350Z,16.80
2022-11-02T13:11:40.431Z,16.80
2022-11-02T13:14:15.792Z,16.80
2022-11-02T13:16:52.215Z,16.90
2022-11-02T13:19:24.344Z,16.80
2022-11-02T13:21:57.605Z,16.90
2022-11-02T13:24:33.813Z,17.00
2022-11-02T13:27:21.818Z,17.00
2022-11-02T13:30:00.388Z,17.00
2022-11-02T13:32:35.662Z,17.10
2022-11-02T13:35:18.157Z,17.20
2022-11-02T13:37:52.714Z,17.20
2022-11-02T13:40:27.166Z,17.30
2022-11-02T13:44:05.786Z,17.30
2022-11-02T13:46:58.802Z,17.40
2022-11-02T13:49:32.760Z,17.40
2022-11-02T13:52:06.730Z,17.40
2022-11-02T13:54:42.581Z,17.40
2022-11-02T13:57:31.967Z,17.40
2022-11-02T14:00:01.207Z,17.50
2022-11-02T14:02:34.908Z,17.50
2022-11-02T14:05:05.442Z,17.50
2022-11-02T14:07:40.256Z,17.50
2022-11-02T14:10:16.503Z,17.50
2022-11-02T14:12:46.178Z,17.50
2022-11-02T14:15:53.705Z,17.60
2022-11-02T14:18:31.465Z,17.50
2022-11-02T14:21:41.581Z,17.50
2022-11-02T14:24:54.161Z,17.50
2022-11-02T14:27:31.784Z,17.50
2022-11-02T14:30:00.821Z,17.40
2022-11-02T14:32:54.020Z,17.50
2022-11-02T14:35:42.496Z,17.40
2022-11-02T14:38:50.040Z,17.40
2022-11-02T14:41:43.597Z,17.40
2022-11-02T14:45:08.640Z,17.40
2022-11-02T14:47:39.758Z,17.40
2022-11-02T14:50:15.929Z,17.40
2022-11-02T14:52:59.614Z,17.40
2022-11-02T14:55:33.019Z,17.40
2022-11-02T14:58:10.681Z,17.40
2022-11-02T15:00:57.397Z,17.30
2022-11-02T15:03:35.111Z,17.30
2022-11-02T15:06:07.591Z,17.30
2022-11-02T15:08:38.534Z,17.30
2022-11-02T15:11:45.888Z,17.30
2022-11-02T15:14:55.030Z,17.20
2022-11-02T15:18:00.807Z,17.20
2022-11-02T15:20:32.705Z,17.10
2022-11-02T15:23:30.988Z,17.10
2022-11-02T15:26:01.815Z,17.10
2022-11-02T15:28:35.958Z,17.00
2022-11-02T15:31:15.838Z,16.90
2022-11-02T15:33:48.014Z,16.90
2022-11-02T15:36:23.154Z,16.80
2022-11-02T15:38:54.363Z,16.80
2022-11-02T15:41:38.254Z,16.70
2022-11-02T15:44:29.112Z,16.60
2022-11-02T15:47:15.117Z,16.60
2022-11-02T15:50:18.387Z,16.50
2022-11-02T15:53:23.192Z,16.30
2022-11-02T15:56:11.797Z,16.30
2022-11-02T15:59:02.679Z,16.20
2022-11-02T16:01:33.291Z,16.20
2022-11-02T16:04:07.320Z,16.00
2022-11-02T16:06:47.137Z,16.10
2022-11-02T16:12:46.027Z,15.90
2022-11-02T16:15:28.014Z,15.80
2022-11-02T16:18:38.796Z,15.70
2022-11-02T16:21:11.882Z,15.50
2022-11-02T16:23:44.306Z,15.60
2022-11-02T16:26:22.238Z,15.60
2022-11-02T16:28:53.157Z,15.50
2022-11-02T16:31:25.220Z,15.50
2022-11-02T16:33:57.104Z,15.40
2022-11-02T16:36:28.367Z,15.40
2022-11-02T16:39:01.443Z,15.30
2022-11-02T16:41:33.823Z,15.20
2022-11-02T16:44:10.057Z,15.20
2022-11-02T16:46:44.473Z,15.10
2022-11-02T16:49:19.732Z,15.00
2022-11-02T16:51:53.902Z,15.00
2022-11-02T16:54:41.368Z,14.90
2022-11-02T16:57:18.084Z,14.80
2022-11-02T16:59:52.736Z,14.70
2022-11-02T17:02:33.355Z,14.70
2022-11-02T17:05:06.618Z,14.60
2022-11-02T17:07:40.406Z,14.50
2022-11-02T17:10:10.601Z,14.40
2022-11-02T17:12:45.267Z,14.40
2022-11-02T17:15:19.227Z,14.30
2022-11-02T17:17:48.530Z,14.20
2022-11-02T17:20:24.511Z,14.20
2022-11-02T17:23:00.247Z,14.10
2022-11-02T17:25:31.572Z,14.00
2022-11-02T17:28:02.742Z,14.00
2022-11-02T17:30:44.717Z,13.90
2022-11-02T17:33:29.019Z,13.80
2022-11-02T17:36:06.666Z,13.70
2022-11-02T17:38:35.733Z,13.70
2022-11-02T17:41:24.857Z,13.60
2022-11-02T17:43:52.460Z,13.60
2022-11-02T17:46:21.053Z,13.50
2022-11-02T17:48:49.627Z,13.40
2022-11-02T17:51:24.767Z,13.40
2022-11-02T17:53:53.587Z,13.40
2022-11-02T17:56:22.256Z,13.30
2022-11-02T17:58:50.830Z,13.30
2022-11-02T18:01:19.917Z,13.20
2022-11-02T18:03:48.665Z,13.20
2022-11-02T18:06:17.214Z,13.10
2022-11-02T18:09:04.519Z,13.10
2022-11-02T18:11:33.170Z,13.00
2022-11-02T18:14:01.713Z,12.90
2022-11-02T18:16:30.230Z,12.90
2022-11-02T18:18:58.893Z,12.90
2022-11-02T18:21:27.508Z,12.80
2022-11-02T18:23:57.411Z,12.80
2022-11-02T18:26:26.038Z,12.70
2022-11-02T18:28:54.489Z,12.70
2022-11-02T18:31:23.379Z,12.60
2022-11-02T18:33:52.948Z,12.60
2022-11-02T18:36:21.825Z,12.50
2022-11-02T18:38:50.348Z,12.50
2022-11-02T18:41:29.880Z,12.40
2022-11-02T18:44:05.630Z,12.40
2022-11-02T18:46:36.506Z,12.30
2022-11-02T18:49:05.009Z,12.30
2022-11-02T18:51:34.508Z,12.30
2022-11-02T18:54:04.983Z,12.20
2022-11-02T18:56:35.106Z,12.20
2022-11-02T18:59:03.942Z,12.20
2022-11-02T19:01:32.625Z,12.10
2022-11-02T19:04:02.250Z,12.10
2022-11-02T19:06:51.149Z,12.00
2022-11-02T19:09:23.177Z,12.00
2022-11-02T19:12:01.216Z,11.90
2022-11-02T19:14:31.890Z,11.90
2022-11-02T19:17:00.478Z,11.90
2022-11-02T19:19:29.359Z,11.80
2022-11-02T19:21:57.849Z,11.80
2022-11-02T19:24:26.865Z,11.70
2022-11-02T19:26:56.786Z,11.70
2022-11-02T19:29:25.334Z,11.70
2022-11-02T19:31:53.926Z,11.60
2022-11-02T19:34:23.021Z,11.60
2022-11-02T19:36:51.607Z,11.60
2022-11-02T19:39:20.188Z,11.50
2022-11-02T19:41:52.022Z,11.60
2022-11-02T19:44:22.242Z,11.50
2022-11-02T19:46:50.882Z,11.50
2022-11-02T19:49:19.554Z,11.50
2022-11-02T19:51:48.437Z,11.50
2022-11-02T19:54:17.048Z,11.50
2022-11-02T19:56:46.634Z,11.40
2022-11-02T19:59:15.266Z,11.40
2022-11-02T20:01:48.058Z,11.40
2022-11-02T20:04:16.710Z,11.30
2022-11-02T20:06:46.031Z,11.30
2022-11-02T20:09:17.244Z,11.30
2022-11-02T20:11:46.994Z,11.20
2022-11-02T20:14:17.446Z,11.20
2022-11-02T20:16:58.779Z,11.20
2022-11-02T20:19:36.052Z,11.20
2022-11-02T20:22:04.761Z,11.10
2022-11-02T20:24:33.273Z,11.10
2022-11-02T20:27:04.055Z,11.10
2022-11-02T20:29:32.627Z,11.00
2022-11-02T20:32:02.591Z,11.00
2022-11-02T20:34:31.139Z,11.00
2022-11-02T20:36:59.802Z,10.90
2022-11-02T20:39:28.299Z,10.90
2022-11-02T20:41:57.214Z,10.90
2022-11-02T20:44:26.088Z,10.90
2022-11-02T20:46:54.663Z,10.80
2022-11-02T20:49:51.715Z,10.80
2022-11-02T20:52:13.142Z,10.80
2022-11-02T20:54:41.663Z,10.80
2022-11-02T20:57:10.136Z,10.80
2022-11-02T20:59:38.755Z,10.70
2022-11-02T21:02:07.594Z,10.70
2022-11-02T21:04:38.035Z,10.70
2022-11-02T21:07:07.486Z,10.70
2022-11-02T21:09:36.190Z,10.70
2022-11-02T21:12:22.170Z,10.70
2022-11-02T21:14:50.761Z,10.70
2022-11-02T21:17:19.268Z,10.60
2022-11-02T21:19:54.226Z,10.60
2022-11-02T21:22:26.653Z,10.60
2022-11-02T21:24:55.195Z,10.50
2022-11-02T21:27:23.728Z,10.50
2022-11-02T21:29:52.291Z,10.50
2022-11-02T21:32:20.865Z,10.40
2022-11-02T21:34:50.789Z,10.40
2022-11-02T21:37:20.066Z,10.40
2022-11-02T21:39:48.854Z,10.40
2022-11-02T21:42:17.634Z,10.30
2022-11-02T21:44:46.391Z,10.30
2022-11-02T21:47:14.949Z,10.30
2022-11-02T21:49:44.093Z,10.30
2022-11-02T21:52:14.262Z,10.30
2022-11-02T21:54:43.121Z,10.30
2022-11-02T21:57:11.934Z,10.20
2022-11-02T21:59:41.015Z,10.20
2022-11-02T22:02:09.847Z,10.20
2022-11-02T22:04:38.706Z,10.10
2022-11-02T22:07:07.426Z,10.10
2022-11-02T22:09:37.921Z,10.10
2022-11-02T22:12:24.702Z,10.10
2022-11-02T22:14:53.509Z,10.00
2022-11-02T22:17:47.989Z,10.00
2022-11-02T22:20:12.804Z,10.00
2022-11-02T22:22:42.433Z,10.00
2022-11-02T22:25:12.719Z,9.90
2022-11-02T22:27:41.231Z,9.90
2022-11-02T22:30:11.130Z,9.80
2022-11-02T22:32:39.602Z,9.80
2022-11-02T22:35:08.870Z,9.80
2022-11-02T22:37:54.627Z,9.80
2022-11-02T22:40:24.596Z,9.70
2022-11-02T22:42:55.955Z,9.70
2022-11-02T22:45:24.605Z,9.70
2022-11-02T22:47:53.301Z,9.70
2022-11-02T22:50:23.811Z,9.70
2022-11-02T22:52:56.298Z,9.70
2022-11-02T22:55:26.220Z,9.60
2022-11-02T22:57:59.734Z,9.60
2022-11-02T23:00:28.727Z,9.60
2022-11-02T23:02:57.308Z,9.60
2022-11-02T23:05:25.873Z,9.60
2022-11-02T23:07:54.436Z,9.60
2022-11-02T23:10:40.520Z,9.60
2022-11-02T23:13:10.381Z,9.50
2022-11-02T23:15:38.988Z,9.50
2022-11-02T23:18:07.513Z,9.50
2022-11-02T23:20:35.083Z,9.50
2022-11-02T23:23:20.906Z,9.50
2022-11-02T23:25:56.583Z,9.50
2022-11-02T23:28:44.007Z,9.40
2022-11-02T23:31:30.132Z,9.40
2022-11-02T23:33:58.715Z,9.40
2022-11-02T23:36:26.197Z,9.40
2022-11-02T23:39:12.165Z,9.30
2022-11-02T23:41:41.628Z,9.30
2022-11-02T23:44:14.234Z,9.20
2022-11-02T23:46:44.895Z,9.20
2022-11-02T23:49:14.209Z,9.20
2022-11-02T23:52:00.023Z,9.20
2022-11-02T23:54:46.053Z,9.20
2022-11-02T23:57:14.720Z,9.20
2022-11-02T23:59:44.836Z,9.10
